Time;durP1;ratioP1;P1;durP2;ratioP2;P2;SDS_P1;SDS_P2;PMS_P1;PMS_P2;Temp;Humidity;BMP_temperature;BMP_pressure;BME280_temperature;BME280_humidity;BME280_pressure;Samples;Min_cycle;Max_cycle;Signal;HPM_P1;HPM_P2
2023/04/19 00:00:52;;;;;;;;;;;;;;;15.19;50.64;97031.91;4181246;28;5837;-80
2023/04/19 00:02:55;;;;;;;;;;;;;;;15.17;50.89;97033.94;4185856;28;5828;-79
2023/04/19 00:04:58;;;;;;;;;;;;;;;15.18;50.66;97034.78;4177543;28;5654;-80
2023/04/19 00:07:02;;;;;;;;;;;;;;;15.16;50.65;97037.63;4185694;28;5109;-81
2023/04/19 00:09:05;;;;;;;;;;;;;;;15.15;50.84;97036.81;4169878;28;5661;-79
2023/04/19 00:11:08;;;;;;;;;;;;;;;15.14;50.79;97035.19;4179387;28;5673;-80
2023/04/19 00:13:12;;;;;;;;;;;;;;;15.14;50.99;97037.03;4168039;28;5864;-79
2023/04/19 00:15:15;;;;;;;;;;;;;;;15.13;50.86;97043.41;4185085;28;5746;-79
2023/04/19 00:17:18;;;;;;;;;;;;;;;15.14;51.07;97040.53;4185162;28;5718;-79
2023/04/19 00:19:21;;;;;;;;;;;;;;;15.12;50.90;97041.78;4185303;28;5742;-79
2023/04/19 00:21:25;;;;;;;;;;;;;;;15.12;51.10;97037.25;4172388;28;5657;-79
2023/04/19 00:23:27;;;;;;;;;;;;;;;15.10;50.96;97044.66;4169435;28;5756;-79
2023/04/19 00:25:30;;;;;;;;;;;;;;;15.10;50.90;97039.34;4170046;28;5845;-80
2023/04/19 00:27:34;;;;;;;;;;;;;;;15.09;51.20;97031.56;4176169;28;5646;-80
2023/04/19 00:29:38;;;;;;;;;;;;;;;15.08;51.24;97040.59;4185574;28;5734;-80
2023/04/19 00:31:41;;;;;;;;;;;;;;;15.08;51.21;97037.94;4185579;28;5741;-79
2023/04/19 00:33:44;;;;;;;;;;;;;;;15.06;51.33;97038.16;4169911;28;5768;-79
2023/04/19 00:35:47;;;;;;;;;;;;;;;15.03;51.21;97033.22;4174186;28;5888;-79
2023/04/19 00:37:49;;;;;;;;;;;;;;;15.02;51.20;97039.59;4163454;28;5825;-79
2023/04/19 00:39:52;;;;;;;;;;;;;;;15.02;51.35;97042.25;4169157;28;5074;-79
2023/04/19 00:41:56;;;;;;;;;;;;;;;15.01;51.18;97043.28;4169004;28;6435;-79
2023/04/19 00:43:59;;;;;;;;;;;;;;;15.01;51.51;97040.63;4169246;28;5730;-79
2023/04/19 00:46:03;;;;;;;;;;;;;;;15.00;51.29;97039.00;4167888;28;5733;-78
2023/04/19 00:48:06;;;;;;;;;;;;;;;14.99;51.32;97036.53;4167886;28;5733;-80
2023/04/19 00:50:11;;;;;;;;;;;;;;;14.98;51.56;97046.38;4168546;28;5737;-79
2023/04/19 00:52:14;;;;;;;;;;;;;;;14.98;51.43;97040.25;4166544;28;6451;-80
2023/04/19 00:54:18;;;;;;;;;;;;;;;14.98;51.36;97037.56;4169103;28;5745;-79
2023/04/19 00:56:21;;;;;;;;;;;;;;;14.96;51.49;97032.47;4167217;28;8038;-81
2023/04/19 00:58:27;;;;;;;;;;;;;;;14.99;51.55;97031.22;4167837;28;5856;-79
2023/04/19 01:00:30;;;;;;;;;;;;;;;14.97;51.53;97042.09;4162376;28;5853;-80
2023/04/19 01:02:34;;;;;;;;;;;;;;;14.94;51.53;97039.84;4167891;28;5816;-79
2023/04/19 01:04:37;;;;;;;;;;;;;;;14.94;51.46;97045.16;4168990;28;5885;-80
2023/04/19 01:06:41;;;;;;;;;;;;;;;14.89;51.59;97044.19;4161228;28;5766;-80
2023/04/19 01:08:44;;;;;;;;;;;;;;;14.86;51.76;97037.44;4165278;28;5850;-79
2023/04/19 01:10:47;;;;;;;;;;;;;;;14.86;51.64;97042.78;4168254;28;6302;-79
2023/04/19 01:12:50;;;;;;;;;;;;;;;14.85;51.77;97046.47;4159235;28;5893;-80
2023/04/19 01:14:52;;;;;;;;;;;;;;;14.81;51.99;97039.91;4158568;28;5782;-80
2023/04/19 01:16:56;;;;;;;;;;;;;;;14.79;51.91;97037.47;4162725;28;5725;-79
2023/04/19 01:19:01;;;;;;;;;;;;;;;14.79;51.92;97040.13;4159567;28;5754;-79
2023/04/19 01:21:04;;;;;;;;;;;;;;;14.77;51.86;97036.88;4164210;28;5726;-79
2023/04/19 01:23:10;;;;;;;;;;;;;;;14.78;52.06;97040.34;4167796;28;5729;-79
2023/04/19 01:25:13;;;;;;;;;;;;;;;14.79;51.81;97039.31;4167005;28;5924;-80
2023/04/19 01:27:16;;;;;;;;;;;;;;;14.79;51.79;97037.47;4159126;28;5758;-79
2023/04/19 01:29:20;;;;;;;;;;;;;;;14.78;52.02;97041.16;4168140;28;5829;-80
2023/04/19 01:31:23;;;;;;;;;;;;;;;14.77;51.83;97036.06;4157409;28;5754;-79
2023/04/19 01:33:26;;;;;;;;;;;;;;;14.78;52.01;97037.69;4161233;28;5826;-79
2023/04/19 01:35:29;;;;;;;;;;;;;;;14.78;51.88;97040.34;4167614;28;6391;-78
2023/04/19 01:37:35;;;;;;;;;;;;;;;14.76;51.93;97042.41;4177336;28;5763;-78
2023/04/19 01:39:39;;;;;;;;;;;;;;;14.73;51.93;97034.88;4180221;28;5770;-79
2023/04/19 01:41:42;;;;;;;;;;;;;;;14.72;52.13;97039.38;4184488;28;5769;-79
2023/04/19 01:43:45;;;;;;;;;;;;;;;14.70;51.98;97038.75;4183203;28;5765;-80
2023/04/19 01:45:48;;;;;;;;;;;;;;;14.69;51.97;97041.63;4187235;28;5650;-80
2023/04/19 01:47:51;;;;;;;;;;;;;;;14.67;52.02;97033.84;4186684;28;5650;-80
2023/04/19 01:49:54;;;;;;;;;;;;;;;14.66;52.32;97031.41;4183275;28;5769;-80
2023/04/19 01:51:57;;;;;;;;;;;;;;;14.64;52.24;97028.97;4186861;28;5642;-81
2023/04/19 01:54:01;;;;;;;;;;;;;;;14.65;52.43;97040.44;4183778;28;5713;-80
2023/04/19 01:56:06;;;;;;;;;;;;;;;14.63;52.26;97034.50;4186963;28;5667;-80
2023/04/19 01:58:08;;;;;;;;;;;;;;;14.61;52.30;97029.41;4184967;28;5738;-80
2023/04/19 02:00:14;;;;;;;;;;;;;;;14.62;52.23;97036.34;4180088;28;5708;-80
2023/04/19 02:02:16;;;;;;;;;;;;;;;14.62;52.44;97038.19;4181636;28;6227;-78
2023/04/19 02:04:20;;;;;;;;;;;;;;;14.61;52.43;97039.19;4181059;28;5741;-79
2023/04/19 02:06:23;;;;;;;;;;;;;;;14.61;52.34;97039.19;4184375;28;5770;-80
2023/04/19 02:08:26;;;;;;;;;;;;;;;14.60;52.49;97029.59;4183763;28;5635;-79
2023/04/19 02:10:29;;;;;;;;;;;;;;;14.59;52.38;97038.59;4178572;28;6371;-80
2023/04/19 02:12:34;;;;;;;;;;;;;;;14.57;52.37;97034.31;4178740;28;5817;-81
2023/04/19 02:14:37;;;;;;;;;;;;;;;14.56;52.35;97037.19;4180305;28;6010;-81
2023/04/19 02:16:40;;;;;;;;;;;;;;;14.54;52.37;97040.06;4179423;28;5796;-78
2023/04/19 02:18:45;;;;;;;;;;;;;;;14.55;52.49;97036.38;4184412;28;5650;-78
2023/04/19 02:20:49;;;;;;;;;;;;;;;14.54;52.65;97029.44;4180351;28;5737;-79
2023/04/19 02:22:51;;;;;;;;;;;;;;;14.53;52.72;97027.78;4180998;28;5086;-80
2023/04/19 02:24:55;;;;;;;;;;;;;;;14.54;52.66;97033.94;4178903;28;5643;-79
2023/04/19 02:26:57;;;;;;;;;;;;;;;14.55;52.43;97038.22;4182676;28;5745;-80
2023/04/19 02:29:02;;;;;;;;;;;;;;;14.54;52.58;97040.06;4183168;28;5769;-80
2023/04/19 02:31:08;;;;;;;;;;;;;;;14.55;52.67;97036.38;4182436;28;6642;-79
2023/04/19 02:33:11;;;;;;;;;;;;;;;14.53;52.53;97033.13;4179843;28;5665;-78
2023/04/19 02:35:14;;;;;;;;;;;;;;;14.54;52.78;97040.06;4183631;28;5778;-80
2023/04/19 02:37:17;;;;;;;;;;;;;;;14.54;52.59;97034.75;4162659;28;5780;-79
2023/04/19 02:39:20;;;;;;;;;;;;;;;14.53;52.60;97038.44;4158881;28;5116;-80
2023/04/19 02:41:23;;;;;;;;;;;;;;;14.50;52.49;97033.53;4166721;28;7785;-80
2023/04/19 02:43:25;;;;;;;;;;;;;;;14.49;52.75;97033.72;4166492;28;5773;-80
2023/04/19 02:45:30;;;;;;;;;;;;;;;14.38;52.71;97031.72;4164974;28;5947;-80
2023/04/19 02:47:33;;;;;;;;;;;;;;;14.39;52.84;97044.81;4164267;28;5734;-79
2023/04/19 02:49:40;;;;;;;;;;;;;;;14.34;53.12;97043.81;4166932;28;5730;-79
2023/04/19 02:51:43;;;;;;;;;;;;;;;14.33;52.96;97050.97;4166297;28;5741;-80
2023/04/19 02:53:45;;;;;;;;;;;;;;;14.32;53.17;97056.50;4165449;28;5121;-79
2023/04/19 02:55:48;;;;;;;;;;;;;;;14.29;52.90;97052.44;4166569;28;6526;-81
2023/04/19 02:57:51;;;;;;;;;;;;;;;14.25;53.15;97049.34;4167049;28;5737;-80
2023/04/19 02:59:54;;;;;;;;;;;;;;;14.24;53.23;97049.56;4165621;28;5907;-79
2023/04/19 03:01:58;;;;;;;;;;;;;;;14.21;53.23;97044.66;4164111;28;5745;-81
2023/04/19 03:04:01;;;;;;;;;;;;;;;14.21;53.07;97048.13;4159936;28;6287;-80
2023/04/19 03:06:07;;;;;;;;;;;;;;;14.23;53.38;97053.25;4167801;28;5816;-81
2023/04/19 03:08:13;;;;;;;;;;;;;;;14.25;53.04;97054.66;4166499;28;5730;-81
2023/04/19 03:10:17;;;;;;;;;;;;;;;14.23;53.13;97051.41;4163852;28;5762;-82
2023/04/19 03:12:19;;;;;;;;;;;;;;;14.22;53.31;97046.31;4163351;28;5830;-82
2023/04/19 03:14:22;;;;;;;;;;;;;;;14.21;53.25;97045.47;4159882;28;5872;-82
2023/04/19 03:16:25;;;;;;;;;;;;;;;14.21;53.31;97047.31;4159467;28;5680;-81
2023/04/19 03:18:29;;;;;;;;;;;;;;;14.18;53.11;97045.09;4160124;28;5904;-83
2023/04/19 03:20:35;;;;;;;;;;;;;;;14.14;53.43;97041.19;4168503;28;5733;-80
2023/04/19 03:22:38;;;;;;;;;;;;;;;14.14;53.36;97041.19;4166378;28;5116;-80
2023/04/19 03:24:41;;;;;;;;;;;;;;;14.09;53.54;97051.66;4163079;28;5861;-81
2023/04/19 03:26:44;;;;;;;;;;;;;;;14.11;53.49;97049.59;4164313;28;5895;-82
2023/04/19 03:28:47;;;;;;;;;;;;;;;14.12;53.49;97064.53;4159780;28;5754;-81
2023/04/19 03:30:49;;;;;;;;;;;;;;;14.12;53.30;97051.25;4167654;28;5835;-82
2023/04/19 03:32:52;;;;;;;;;;;;;;;14.15;53.34;97050.81;4169625;28;5730;-79
2023/04/19 03:34:57;;;;;;;;;;;;;;;14.17;53.22;97049.59;4167014;28;5733;-80
2023/04/19 03:36:59;;;;;;;;;;;;;;;14.19;53.19;97046.72;4170084;28;5741;-79
2023/04/19 03:39:03;;;;;;;;;;;;;;;14.22;53.01;97056.94;4167867;28;5737;-81
2023/04/19 03:41:05;;;;;;;;;;;;;;;14.20;52.99;97049.16;4168114;28;5980;-81
2023/04/19 03:43:08;;;;;;;;;;;;;;;14.22;53.10;97056.94;4163454;28;5742;-81
2023/04/19 03:45:11;;;;;;;;;;;;;;;14.20;53.22;97048.34;4165174;28;5755;-79
2023/04/19 03:47:14;;;;;;;;;;;;;;;14.18;53.00;97050.41;4165407;28;5750;-79
2023/04/19 03:49:17;;;;;;;;;;;;;;;14.17;53.13;97056.75;4165126;28;5746;-79
2023/04/19 03:51:21;;;;;;;;;;;;;;;14.17;53.24;97049.59;4167027;28;5844;-79
2023/04/19 03:53:24;;;;;;;;;;;;;;;14.19;52.95;97047.53;4165258;28;5742;-79
2023/04/19 03:55:27;;;;;;;;;;;;;;;14.18;53.22;97045.09;4161354;28;5864;-81
2023/04/19 03:57:30;;;;;;;;;;;;;;;14.19;53.36;97046.72;4165876;28;5828;-80
2023/04/19 03:59:32;;;;;;;;;;;;;;;14.19;53.30;97049.38;4160915;28;5796;-79
2023/04/19 04:01:40;;;;;;;;;;;;;;;14.16;53.25;97044.50;4163738;28;6002;-80
2023/04/19 04:03:43;;;;;;;;;;;;;;;14.15;53.16;97045.50;4165595;28;5722;-80
2023/04/19 04:05:46;;;;;;;;;;;;;;;14.16;53.13;97036.53;4168878;28;5733;-81
2023/04/19 04:07:50;;;;;;;;;;;;;;;14.14;53.29;97047.34;4166557;28;5730;-81
2023/04/19 04:09:54;;;;;;;;;;;;;;;14.14;53.15;97038.53;4166745;28;5923;-81
2023/04/19 04:11:57;;;;;;;;;;;;;;;14.10;53.22;97043.47;4167809;28;5726;-81
2023/04/19 04:14:00;;;;;;;;;;;;;;;14.09;53.22;97041.84;4159814;28;5753;-82
2023/04/19 04:16:03;;;;;;;;;;;;;;;14.12;53.39;97035.28;4161234;28;5999;-82
2023/04/19 04:18:06;;;;;;;;;;;;;;;14.13;53.34;97040.38;4166824;28;5948;-82
2023/04/19 04:20:12;;;;;;;;;;;;;;;14.11;53.28;97042.44;4160991;28;5729;-80
2023/04/19 04:22:16;;;;;;;;;;;;;;;14.10;53.13;97037.34;4166057;28;5758;-82
2023/04/19 04:24:21;;;;;;;;;;;;;;;14.08;53.50;97034.91;4163016;28;5750;-81
2023/04/19 04:26:24;;;;;;;;;;;;;;;14.07;53.20;97046.56;4161778;28;5804;-82
2023/04/19 04:28:27;;;;;;;;;;;;;;;14.06;53.24;97052.09;4164454;28;5759;-80
2023/04/19 04:30:30;;;;;;;;;;;;;;;14.03;53.20;97047.97;4167893;28;6048;-81
2023/04/19 04:32:34;;;;;;;;;;;;;;;14.02;53.45;97045.53;4161207;28;6991;-80
2023/04/19 04:34:38;;;;;;;;;;;;;;;14.01;53.53;97057.19;4169507;28;5750;-81
2023/04/19 04:36:41;;;;;;;;;;;;;;;13.97;53.76;97051.50;4166389;28;5653;-81
2023/04/19 04:38:44;;;;;;;;;;;;;;;13.94;53.69;97055.38;4177614;28;5690;-81
2023/04/19 04:40:52;;;;;;;;;;;;;;;13.95;53.66;97062.34;4169679;28;5654;-80
2023/04/19 04:42:55;;;;;;;;;;;;;;;13.95;53.43;97056.19;4185065;28;5725;-81
2023/04/19 04:45:00;;;;;;;;;;;;;;;13.94;53.72;97055.38;4170480;28;5752;-82
2023/04/19 04:47:03;;;;;;;;;;;;;;;13.92;53.39;97060.06;4179763;28;5797;-80
2023/04/19 04:49:06;;;;;;;;;;;;;;;13.95;53.32;97056.19;4173026;28;6738;-79
2023/04/19 04:51:09;;;;;;;;;;;;;;;13.96;53.32;97057.84;4184575;28;5647;-81
2023/04/19 04:53:12;;;;;;;;;;;;;;;13.93;53.52;97067.03;4183198;28;6443;-80
2023/04/19 04:55:15;;;;;;;;;;;;;;;13.94;53.46;97067.84;4182016;28;5657;-80
2023/04/19 04:57:19;;;;;;;;;;;;;;;13.93;53.68;97072.34;4179503;28;6344;-80
2023/04/19 04:59:23;;;;;;;;;;;;;;;13.94;53.50;97066.00;4177289;28;5701;-80
2023/04/19 05:01:25;;;;;;;;;;;;;;;13.92;53.57;97068.03;4180536;28;5638;-81
2023/04/19 05:03:29;;;;;;;;;;;;;;;13.92;53.48;97075.19;4176582;28;5631;-79
2023/04/19 05:05:32;;;;;;;;;;;;;;;13.91;53.73;97069.06;4172529;28;5666;-80
2023/04/19 05:07:34;;;;;;;;;;;;;;;13.88;53.83;97076.66;4177244;28;5762;-81
2023/04/19 05:09:37;;;;;;;;;;;;;;;13.85;53.94;97074.41;4175475;28;5669;-81
2023/04/19 05:11:40;;;;;;;;;;;;;;;13.82;53.70;97067.69;4175483;28;5709;-81
2023/04/19 05:13:44;;;;;;;;;;;;;;;13.80;53.77;97068.88;4184580;28;5746;-81
2023/04/19 05:15:47;;;;;;;;;;;;;;;13.82;53.92;97070.34;4179868;28;5654;-81
2023/04/19 05:17:50;;;;;;;;;;;;;;;13.82;54.12;97061.53;4183201;28;5663;-82
2023/04/19 05:19:53;;;;;;;;;;;;;;;13.82;54.09;97072.19;4177316;28;5657;-80
2023/04/19 05:21:55;;;;;;;;;;;;;;;13.82;54.06;97067.69;4174741;28;5673;-82
2023/04/19 05:23:58;;;;;;;;;;;;;;;13.83;53.94;97063.19;4178155;28;5643;-82
2023/04/19 05:26:01;;;;;;;;;;;;;;;13.86;53.83;97066.22;4183393;28;5658;-81
2023/04/19 05:28:04;;;;;;;;;;;;;;;13.88;54.04;97066.84;4181748;28;5785;-81
2023/04/19 05:30:09;;;;;;;;;;;;;;;13.88;54.10;97063.34;4178610;28;5665;-81
2023/04/19 05:32:12;;;;;;;;;;;;;;;13.86;53.86;97062.75;4184946;28;5638;-81
2023/04/19 05:34:15;;;;;;;;;;;;;;;13.84;54.05;97064.81;4182026;28;5750;-81
2023/04/19 05:36:20;;;;;;;;;;;;;;;13.78;54.01;97066.44;4179981;28;5657;-80
2023/04/19 05:38:23;;;;;;;;;;;;;;;13.81;53.75;97070.50;4173034;28;5933;-81
2023/04/19 05:40:26;;;;;;;;;;;;;;;13.82;53.73;97073.00;4174285;28;5677;-81
2023/04/19 05:42:30;;;;;;;;;;;;;;;13.84;54.14;97062.97;4175293;28;5749;-82
2023/04/19 05:44:32;;;;;;;;;;;;;;;13.89;54.16;97068.47;4180482;28;5654;-82
2023/04/19 05:46:36;;;;;;;;;;;;;;;13.94;53.84;97071.34;4183424;28;5647;-81
2023/04/19 05:48:40;;;;;;;;;;;;;;;13.95;53.70;97072.97;4178236;28;5106;-81
2023/04/19 05:50:44;;;;;;;;;;;;;;;13.97;53.94;97070.91;4181431;28;5725;-82
2023/04/19 05:52:46;;;;;;;;;;;;;;;14.01;53.90;97070.47;4183916;28;5671;-82
2023/04/19 05:54:49;;;;;;;;;;;;;;;14.01;53.73;97071.31;4173496;28;6306;-82
2023/04/19 05:56:52;;;;;;;;;;;;;;;14.07;53.83;97072.31;4180598;28;6563;-82
2023/04/19 05:58:55;;;;;;;;;;;;;;;14.08;53.86;97073.97;4180054;28;5734;-81
2023/04/19 06:00:58;;;;;;;;;;;;;;;14.04;53.66;97070.88;4180207;28;6323;-82
2023/04/19 06:03:02;;;;;;;;;;;;;;;13.99;54.06;97066.19;4179981;28;5781;-82
2023/04/19 06:05:06;;;;;;;;;;;;;;;14.07;54.04;97074.97;4181635;28;5884;-81
2023/04/19 06:07:13;;;;;;;;;;;;;;;14.11;53.72;97071.69;4183084;28;5749;-83
2023/04/19 06:09:32;;;;;;;;;;;;;;;14.15;53.74;97072.91;4174749;28;5769;-82
2023/04/19 06:11:35;;;;;;;;;;;;;;;14.17;53.75;97076.19;4178984;28;5694;-82
2023/04/19 06:13:51;;;;;;;;;;;;;;;14.17;54.08;97081.50;4180871;28;5698;-80
2023/04/19 06:15:54;;;;;;;;;;;;;;;14.18;54.08;97077.00;4181337;28;5662;-81
2023/04/19 06:17:56;;;;;;;;;;;;;;;14.20;54.09;97080.25;4172613;28;5651;-81
2023/04/19 06:20:05;;;;;;;;;;;;;;;14.17;53.90;97078.84;4176301;28;5121;-81
2023/04/19 06:22:08;;;;;;;;;;;;;;;14.17;54.16;97089.47;4184223;28;5635;-82
2023/04/19 06:24:11;;;;;;;;;;;;;;;14.19;54.14;97082.09;4181373;28;5676;-81
2023/04/19 06:26:15;;;;;;;;;;;;;;;14.18;53.82;97084.97;4174265;28;5725;-82
2023/04/19 06:28:18;;;;;;;;;;;;;;;14.18;53.91;97087.63;4180484;28;5830;-82
2023/04/19 06:30:20;;;;;;;;;;;;;;;14.20;53.84;97088.25;4176293;28;5662;-81
2023/04/19 06:32:24;;;;;;;;;;;;;;;14.23;53.88;97085.97;4181319;28;5752;-80
2023/04/19 06:34:27;;;;;;;;;;;;;;;14.28;53.98;97088.03;4175979;28;5646;-82
2023/04/19 06:36:32;;;;;;;;;;;;;;;14.27;54.11;97087.22;4175587;28;5745;-80
2023/04/19 06:38:35;;;;;;;;;;;;;;;14.27;54.09;97089.88;4180535;28;5638;-81
2023/04/19 06:40:38;;;;;;;;;;;;;;;14.27;54.21;97087.22;4176482;28;5857;-81
2023/04/19 06:42:41;;;;;;;;;;;;;;;14.27;53.97;97094.38;4184274;28;5650;-82
2023/04/19 06:44:44;;;;;;;;;;;;;;;14.30;53.94;97090.47;4184275;28;5717;-81
2023/04/19 06:46:46;;;;;;;;;;;;;;;14.31;54.28;97095.56;4173922;28;5654;-81
2023/04/19 06:48:50;;;;;;;;;;;;;;;14.35;54.22;97087.97;4183672;28;5656;-80
2023/04/19 06:50:54;;;;;;;;;;;;;;;14.35;54.11;97088.81;4183037;28;5110;-82
2023/04/19 06:52:59;;;;;;;;;;;;;;;14.33;53.80;97090.84;4175433;28;5807;-82
2023/04/19 06:55:01;;;;;;;;;;;;;;;14.32;53.94;97094.53;4175972;28;5886;-81
2023/04/19 06:57:04;;;;;;;;;;;;;;;14.31;53.99;97098.22;4181254;28;5839;-80
2023/04/19 06:59:07;;;;;;;;;;;;;;;14.34;53.88;97095.16;4157766;28;5668;-81
2023/04/19 07:01:11;;;;;;;;;;;;;;;14.33;53.94;97093.53;4180799;28;5658;-81
2023/04/19 07:03:14;;;;;;;;;;;;;;;14.32;53.95;97091.88;4178019;28;6328;-81
2023/04/19 07:05:20;;;;;;;;;;;;;;;14.33;53.95;97096.19;4163874;28;6297;-82
2023/04/19 07:07:25;;;;;;;;;;;;;;;14.35;53.93;97095.97;4183420;28;5646;-82
2023/04/19 07:09:29;;;;;;;;;;;;;;;14.36;53.96;97097.59;4184981;28;5718;-80
2023/04/19 07:11:32;;;;;;;;;;;;;;;14.38;54.09;97090.22;4180861;28;5891;-81
2023/04/19 07:13:35;;;;;;;;;;;;;;;14.40;54.15;97089.00;4180268;28;5653;-81
2023/04/19 07:15:39;;;;;;;;;;;;;;;14.44;54.16;97089.41;4179573;28;5813;-80
2023/04/19 07:17:42;;;;;;;;;;;;;;;14.43;54.00;97093.91;4183453;28;5714;-80
2023/04/19 07:19:47;;;;;;;;;;;;;;;14.44;54.35;97098.22;4176590;28;5643;-80
2023/04/19 07:21:51;;;;;;;;;;;;;;;14.46;54.33;97101.47;4177116;28;5742;-81
2023/04/19 07:23:54;;;;;;;;;;;;;;;14.46;54.11;97098.00;4185444;28;5639;-72
2023/04/19 07:25:58;;;;;;;;;;;;;;;14.48;54.13;97093.28;4179852;28;5757;-69
2023/04/19 07:28:02;;;;;;;;;;;;;;;14.48;54.23;97088.78;4168334;28;5673;-69
2023/04/19 07:30:06;;;;;;;;;;;;;;;14.52;54.11;97092.66;4179143;28;5666;-70
2023/04/19 07:32:12;;;;;;;;;;;;;;;14.55;54.10;97086.91;4175458;28;5650;-70
2023/04/19 07:34:15;;;;;;;;;;;;;;;14.54;54.02;97090.63;4176431;28;5750;-69
2023/04/19 07:36:20;;;;;;;;;;;;;;;14.54;54.20;97087.94;4176449;28;5654;-70
2023/04/19 07:38:23;;;;;;;;;;;;;;;14.56;54.28;97079.75;4176390;28;5729;-70
2023/04/19 07:40:26;;;;;;;;;;;;;;;14.59;54.24;97079.31;4178582;28;6562;-69
2023/04/19 07:42:31;;;;;;;;;;;;;;;14.62;54.36;97089.56;4184648;28;5567;-69
2023/04/19 07:44:36;;;;;;;;;;;;;;;14.63;54.33;97080.56;4183037;28;7720;-69
2023/04/19 07:46:39;;;;;;;;;;;;;;;14.65;54.27;97080.34;4181421;28;5777;-70
2023/04/19 07:48:42;;;;;;;;;;;;;;;14.67;54.35;97083.59;4176303;28;5650;-70
2023/04/19 07:50:48;;;;;;;;;;;;;;;14.71;54.34;97082.13;4170727;28;5928;-70
2023/04/19 07:52:53;;;;;;;;;;;;;;;14.73;54.24;97088.91;4176869;28;5650;-70
2023/04/19 07:54:57;;;;;;;;;;;;;;;14.74;54.27;97087.06;4176834;28;5713;-71
2023/04/19 07:57:00;;;;;;;;;;;;;;;14.75;54.48;97084.19;4183198;28;6657;-71
2023/04/19 07:59:05;;;;;;;;;;;;;;;14.79;54.16;97089.88;4179813;28;5740;-68
2023/04/19 08:01:11;;;;;;;;;;;;;;;14.79;54.35;97081.91;4173472;28;5769;-70
2023/04/19 08:03:14;;;;;;;;;;;;;;;14.77;54.22;97086.63;4180723;28;5631;-70
2023/04/19 08:05:17;;;;;;;;;;;;;;;14.77;54.38;97083.97;4187771;28;5899;-69
2023/04/19 08:07:22;;;;;;;;;;;;;;;14.77;54.29;97087.44;4178231;28;5737;-69
2023/04/19 08:09:25;;;;;;;;;;;;;;;14.76;54.38;97085.81;4170857;28;5865;-69
2023/04/19 08:11:28;;;;;;;;;;;;;;;14.77;54.57;97091.94;4175555;28;5733;-70
2023/04/19 08:13:31;;;;;;;;;;;;;;;14.78;54.31;97089.06;4173012;28;5837;-69
2023/04/19 08:15:35;;;;;;;;;;;;;;;14.79;54.44;97089.88;4189733;28;5745;-71
2023/04/19 08:17:41;;;;;;;;;;;;;;;14.81;54.29;97077.19;4176806;28;5916;-70
2023/04/19 08:19:45;;;;;;;;;;;;;;;14.83;54.23;97085.75;4188103;28;5915;-70
2023/04/19 08:21:47;;;;;;;;;;;;;;;14.82;54.23;97090.28;4174020;28;5666;-70
2023/04/19 08:23:51;;;;;;;;;;;;;;;14.84;54.33;97090.91;4174733;28;5639;-70
2023/04/19 08:25:56;;;;;;;;;;;;;;;14.85;54.40;97094.38;4190503;28;5615;-70
2023/04/19 08:27:59;;;;;;;;;;;;;;;14.86;54.56;97090.69;4167210;28;5853;-70
2023/04/19 08:30:02;;;;;;;;;;;;;;;14.85;54.40;97087.22;4169368;28;5751;-69
2023/04/19 08:32:07;;;;;;;;;;;;;;;14.87;54.24;97088.84;4182433;28;5757;-70
2023/04/19 08:34:11;;;;;;;;;;;;;;;14.88;54.55;97098.44;4188613;28;5968;-71
2023/04/19 08:36:15;;;;;;;;;;;;;;;14.89;54.47;97094.75;4153883;28;5889;-70
2023/04/19 08:38:27;;;;;;;;;;;;;;;14.91;54.50;97095.34;4164726;28;5816;-69
2023/04/19 08:40:33;;;;;;;;;;;;;;;14.95;54.46;97093.88;4161771;28;6006;-70
2023/04/19 08:42:36;;;;;;;;;;;;;;;15.01;54.46;97090.38;4166806;28;5804;-70
2023/04/19 08:44:40;;;;;;;;;;;;;;;15.06;54.54;97075.41;4151631;28;5843;-69
2023/04/19 08:47:03;;;;;;;;;;;;;;;15.12;54.48;97082.53;4157578;28;5759;-70
2023/04/19 08:49:09;;;;;;;;;;;;;;;15.14;54.19;97088.44;4162934;28;5970;-69
2023/04/19 08:51:13;;;;;;;;;;;;;;;15.12;54.40;97087.84;4163461;28;5733;-69
2023/04/19 08:53:18;;;;;;;;;;;;;;;15.13;54.28;97086.81;4163394;28;5754;-69
2023/04/19 08:55:28;;;;;;;;;;;;;;;15.13;54.11;97092.16;4160068;28;5733;-70
2023/04/19 08:57:32;;;;;;;;;;;;;;;15.14;54.53;97087.63;4165177;28;5823;-71
2023/04/19 08:59:35;;;;;;;;;;;;;;;15.14;54.38;97083.13;4164427;28;5872;-70
2023/04/19 09:01:38;;;;;;;;;;;;;;;15.19;54.45;97085.16;4165348;28;5793;-70
2023/04/19 09:03:45;;;;;;;;;;;;;;;15.20;54.33;97091.31;4158052;28;5816;-66
2023/04/19 09:06:07;;;;;;;;;;;;;;;15.19;54.46;97089.69;4155549;28;5849;-67
2023/04/19 09:08:27;;;;;;;;;;;;;;;15.23;54.12;97077.56;4164004;28;5894;-67
2023/04/19 09:10:30;;;;;;;;;;;;;;;15.27;54.04;97084.88;4158897;28;5845;-67
2023/04/19 09:12:34;;;;;;;;;;;;;;;15.32;54.20;97078.94;4150541;28;5858;-66
2023/04/19 09:14:45;;;;;;;;;;;;;;;15.34;54.27;97071.53;4150341;28;6330;-68
2023/04/19 09:17:13;;;;;;;;;;;;;;;15.40;53.88;97082.16;4158089;28;5725;-66
2023/04/19 09:19:20;;;;;;;;;;;;;;;15.40;53.98;97070.66;4165815;28;6703;-68
2023/04/19 09:21:30;;;;;;;;;;;;;;;15.43;53.97;97067.56;4164871;28;5754;-66
2023/04/19 09:23:33;;;;;;;;;;;;;;;15.44;53.92;97071.88;4155196;28;5813;-66
2023/04/19 09:25:36;;;;;;;;;;;;;;;15.51;53.93;97067.28;4164246;28;5729;-66
2023/04/19 09:28:09;;;;;;;;;;;;;;;15.60;53.79;97065.19;4152044;28;5827;-66
2023/04/19 09:30:13;;;;;;;;;;;;;;;15.66;53.80;97065.16;4162919;28;5756;-66
2023/04/19 09:32:46;;;;;;;;;;;;;;;15.70;53.41;97058.34;4163570;28;5800;-67
2023/04/19 09:34:54;;;;;;;;;;;;;;;15.72;53.52;97058.13;4165750;28;5816;-66
2023/04/19 09:36:58;;;;;;;;;;;;;;;15.74;53.38;97053.38;4173231;28;5734;-66
2023/04/19 09:39:28;;;;;;;;;;;;;;;15.77;53.41;97044.97;4170282;28;5723;-65
2023/04/19 09:41:32;;;;;;;;;;;;;;;15.82;53.34;97054.97;4163411;28;5869;-66
2023/04/19 09:43:35;;;;;;;;;;;;;;;15.85;53.36;97043.84;4182944;28;5937;-66
2023/04/19 09:45:58;;;;;;;;;;;;;;;15.88;53.30;97040.75;4174144;28;7309;-66
2023/04/19 09:48:02;;;;;;;;;;;;;;;15.88;53.25;97038.91;4178887;28;5791;-67
2023/04/19 09:50:07;;;;;;;;;;;;;;;15.87;53.13;97036.47;4169909;28;5881;-65
2023/04/19 09:52:25;;;;;;;;;;;;;;;15.88;53.31;97035.44;4169172;28;5869;-66
2023/04/19 09:54:29;;;;;;;;;;;;;;;15.90;53.24;97033.34;4178848;28;5643;-66
2023/04/19 09:56:33;;;;;;;;;;;;;;;15.91;53.15;97038.47;4179387;28;5733;-66
2023/04/19 09:58:36;;;;;;;;;;;;;;;15.92;52.99;97034.75;4174608;28;5749;-66
2023/04/19 10:00:56;;;;;;;;;;;;;;;15.88;53.08;97038.09;4170622;28;5659;-67
2023/04/19 10:03:16;;;;;;;;;;;;;;;15.85;52.92;97026.00;4177419;28;5844;-66
2023/04/19 10:05:21;;;;;;;;;;;;;;;15.80;53.12;97025.06;4174394;28;5830;-66
2023/04/19 10:07:28;;;;;;;;;;;;;;;15.68;53.04;97028.44;4177153;28;5657;-66
2023/04/19 10:09:35;;;;;;;;;;;;;;;15.61;53.21;97024.19;4176268;28;5709;-66
2023/04/19 10:11:54;;;;;;;;;;;;;;;15.60;53.01;97022.56;4180374;28;5082;-66
2023/04/19 10:14:16;;;;;;;;;;;;;;;15.55;52.99;97015.22;4178821;28;5651;-66
2023/04/19 10:16:19;;;;;;;;;;;;;;;15.53;53.28;97006.63;4173380;28;5780;-66
2023/04/19 10:18:23;;;;;;;;;;;;;;;15.56;52.94;97011.50;4178077;28;5765;-66
2023/04/19 10:20:32;;;;;;;;;;;;;;;15.58;53.14;97012.09;4177824;28;5851;-66
2023/04/19 10:22:38;;;;;;;;;;;;;;;15.58;52.87;97006.78;4175015;28;5818;-66
2023/04/19 10:25:08;;;;;;;;;;;;;;;15.62;52.75;97004.50;4172347;28;5156;-66
2023/04/19 10:27:13;;;;;;;;;;;;;;;15.59;52.78;97003.06;4179574;28;5776;-66
2023/04/19 10:29:16;;;;;;;;;;;;;;;15.57;52.95;97005.13;4182089;28;5746;-66
2023/04/19 10:31:22;;;;;;;;;;;;;;;15.50;52.90;97006.22;4181459;28;6389;-66
2023/04/19 10:33:27;;;;;;;;;;;;;;;15.44;52.90;97002.59;4179376;28;5661;-66
2023/04/19 10:35:36;;;;;;;;;;;;;;;15.38;52.81;97003.47;4177409;28;5642;-66
2023/04/19 10:37:42;;;;;;;;;;;;;;;15.36;52.73;97000.22;4184418;28;5634;-66
2023/04/19 10:39:46;;;;;;;;;;;;;;;15.35;52.96;96995.91;4183744;28;5750;-66
2023/04/19 10:41:58;;;;;;;;;;;;;;;15.38;52.70;96995.47;4178179;28;5808;-66
2023/04/19 10:44:11;;;;;;;;;;;;;;;15.37;52.58;96989.31;4179436;28;5669;-66
2023/04/19 10:46:35;;;;;;;;;;;;;;;15.39;52.58;96989.09;4182551;28;5769;-66
2023/04/19 10:48:52;;;;;;;;;;;;;;;15.41;52.68;96989.72;4186028;28;5767;-66
2023/04/19 10:50:58;;;;;;;;;;;;;;;15.40;52.57;96985.41;4172128;28;5756;-65
2023/04/19 10:55:57;;;;;;;;;;;;;;;15.39;52.41;96976.59;4247322;27;8065;-66
2023/04/19 10:58:02;;;;;;;;;;;;;;;15.41;52.63;96976.41;4245628;27;5737;-65
2023/04/19 11:00:19;;;;;;;;;;;;;;;15.39;52.45;96965.13;4244625;27;5825;-65
2023/04/19 11:02:31;;;;;;;;;;;;;;;15.39;52.41;96971.28;4245969;27;5737;-65